createdAt,value
2018-01-15T00:00:49.808Z,86.20
2018-01-15T00:03:17.995Z,87.20
2018-01-15T00:05:46.909Z,90.20
2018-01-15T00:08:15.036Z,90.20
2018-01-15T00:10:43.169Z,90.70
2018-01-15T00:13:11.320Z,89.40
2018-01-15T00:15:39.459Z,90.70
2018-01-15T00:18:07.612Z,91.70
2018-01-15T00:20:36.527Z,90.10
2018-01-15T00:23:04.663Z,90.10
2018-01-15T00:25:32.848Z,89.10
2018-01-15T00:28:00.997Z,89.00
2018-01-15T00:30:29.117Z,88.50
2018-01-15T00:32:57.264Z,87.80
2018-01-15T00:35:25.411Z,89.20
2018-01-15T00:37:53.549Z,90.50
2018-01-15T00:40:21.689Z,90.40
2018-01-15T00:42:50.608Z,90.80
2018-01-15T00:45:19.504Z,91.70
2018-01-15T00:47:48.408Z,91.90
2018-01-15T00:50:17.316Z,92.40
2018-01-15T00:52:46.223Z,92.50
2018-01-15T00:55:14.369Z,92.50
2018-01-15T00:57:42.510Z,91.40
2018-01-15T01:00:10.648Z,91.50
2018-01-15T01:02:38.785Z,91.70
2018-01-15T01:05:06.939Z,90.80
2018-01-15T01:07:35.879Z,91.60
2018-01-15T01:10:04.051Z,91.60
2018-01-15T01:12:32.176Z,92.10
2018-01-15T01:15:00.323Z,90.90
2018-01-15T01:17:29.244Z,91.50
2018-01-15T01:19:57.588Z,91.50
2018-01-15T01:22:25.720Z,92.10
2018-01-15T01:24:53.851Z,91.60
2018-01-15T01:27:22.016Z,91.70
2018-01-15T01:29:50.139Z,90.80
2018-01-15T01:32:18.294Z,89.80
2018-01-15T01:34:46.416Z,89.40
2018-01-15T01:37:15.324Z,91.10
2018-01-15T01:39:44.233Z,90.20
2018-01-15T01:42:12.363Z,90.10
2018-01-15T01:44:40.514Z,90.20
2018-01-15T01:47:08.659Z,90.30
2018-01-15T01:49:36.798Z,90.80
2018-01-15T01:52:04.975Z,90.50
2018-01-15T01:54:33.108Z,89.90
2018-01-15T01:57:01.374Z,88.80
2018-01-15T01:59:29.516Z,88.40
2018-01-15T02:01:58.406Z,88.00
2018-01-15T02:04:27.367Z,90.60
2018-01-15T02:06:55.503Z,90.50
2018-01-15T02:09:24.419Z,92.40
2018-01-15T02:11:53.332Z,92.30
2018-01-15T02:14:21.469Z,92.30
2018-01-15T02:16:51.139Z,91.40
2018-01-15T02:19:19.279Z,91.40
2018-01-15T02:21:47.421Z,91.70
2018-01-15T02:24:15.576Z,91.60
2018-01-15T02:26:44.485Z,92.00
2018-01-15T02:29:13.420Z,91.80
2018-01-15T02:31:41.549Z,91.70
2018-01-15T02:34:09.695Z,90.80
2018-01-15T02:36:37.905Z,91.50
2018-01-15T02:39:06.062Z,90.30
2018-01-15T02:41:34.210Z,90.40
2018-01-15T02:44:03.108Z,87.40
2018-01-15T02:46:31.231Z,87.40
2018-01-15T02:48:59.415Z,87.00
2018-01-15T02:51:27.537Z,90.00
2018-01-15T02:53:55.696Z,91.30
2018-01-15T02:56:23.816Z,90.70
2018-01-15T02:58:51.970Z,90.10
2018-01-15T03:01:20.102Z,89.20
2018-01-15T03:03:49.180Z,88.90
2018-01-15T03:06:17.313Z,89.40
2018-01-15T03:08:46.199Z,92.00
2018-01-15T03:11:14.342Z,92.00
2018-01-15T03:13:42.500Z,92.90
2018-01-15T03:16:10.651Z,93.20
2018-01-15T03:18:38.856Z,93.40
2018-01-15T03:21:06.987Z,93.60
2018-01-15T03:23:35.132Z,93.40
2018-01-15T03:26:04.036Z,91.90
2018-01-15T03:28:32.943Z,91.70
2018-01-15T03:31:01.853Z,91.30
2018-01-15T03:33:30.765Z,91.80
2018-01-15T03:35:58.905Z,91.70
2018-01-15T03:38:27.044Z,92.30
2018-01-15T03:40:55.203Z,92.20
2018-01-15T03:43:24.639Z,91.10
2018-01-15T03:45:52.778Z,91.00
2018-01-15T03:48:20.941Z,91.30
2018-01-15T03:50:49.077Z,91.40
2018-01-15T03:53:17.980Z,91.10
2018-01-15T03:55:46.134Z,91.10
2018-01-15T03:58:14.252Z,91.30
2018-01-15T04:00:43.163Z,91.70
2018-01-15T04:03:12.074Z,91.00
2018-01-15T04:05:40.965Z,90.40
2018-01-15T04:08:09.880Z,90.50
2018-01-15T04:10:38.760Z,90.20
2018-01-15T04:13:06.904Z,90.20
2018-01-15T04:15:35.038Z,89.50
2018-01-15T04:18:04.688Z,90.80
2018-01-15T04:20:32.839Z,90.80
2018-01-15T04:23:00.969Z,92.00
2018-01-15T04:25:29.119Z,91.80
2018-01-15T04:27:58.024Z,91.40
2018-01-15T04:30:26.929Z,91.10
2018-01-15T04:32:55.832Z,90.60
2018-01-15T04:35:23.975Z,90.60
2018-01-15T04:37:52.883Z,91.30
2018-01-15T04:40:21.036Z,91.10
2018-01-15T04:42:49.173Z,91.20
2018-01-15T04:45:17.306Z,92.20
2018-01-15T04:47:45.453Z,92.70
2018-01-15T04:50:13.628Z,92.00
2018-01-15T04:52:41.756Z,91.70
2018-01-15T04:55:10.635Z,91.10
2018-01-15T04:57:38.780Z,91.00
2018-01-15T05:00:06.908Z,90.60
2018-01-15T05:02:35.825Z,91.40
2018-01-15T05:05:04.731Z,91.30
2018-01-15T05:07:33.676Z,91.60
2018-01-15T05:10:01.808Z,91.60
2018-01-15T05:12:30.719Z,91.70
2018-01-15T05:14:59.623Z,91.00
2018-01-15T05:17:28.531Z,91.90
2018-01-15T05:19:57.424Z,91.70
2018-01-15T05:22:25.584Z,91.60
2018-01-15T05:24:54.192Z,92.30
2018-01-15T05:27:22.390Z,91.60
2018-01-15T05:29:50.480Z,91.20
2018-01-15T05:32:19.388Z,90.60
2018-01-15T05:34:48.329Z,90.20
2018-01-15T05:37:16.460Z,90.20
2018-01-15T05:39:44.616Z,90.50
2018-01-15T05:42:12.757Z,92.10
2018-01-15T05:44:41.660Z,92.00
2018-01-15T05:47:10.571Z,92.60
2018-01-15T05:49:39.508Z,91.90
2018-01-15T05:52:07.643Z,91.90
2018-01-15T05:54:36.543Z,91.30
2018-01-15T05:57:05.488Z,90.80
2018-01-15T05:59:33.641Z,90.80
2018-01-15T06:02:02.551Z,91.70
2018-01-15T06:07:00.105Z,92.20
2018-01-15T06:09:28.257Z,92.60
2018-01-15T06:11:56.408Z,93.30
2018-01-15T06:14:24.541Z,93.00
2018-01-15T06:16:52.688Z,93.60
2018-01-15T06:19:21.618Z,91.90
2018-01-15T06:21:51.298Z,91.90
2018-01-15T06:24:19.419Z,92.30
2018-01-15T06:26:47.563Z,91.60
2018-01-15T06:29:15.712Z,92.40
2018-01-15T06:31:43.860Z,93.20
2018-01-15T06:34:12.787Z,92.60
2018-01-15T06:36:40.932Z,92.60
2018-01-15T06:39:09.099Z,92.80
2018-01-15T06:41:37.393Z,91.70
2018-01-15T06:44:05.529Z,91.00
2018-01-15T06:46:33.713Z,91.10
2018-01-15T06:49:02.593Z,93.30
2018-01-15T06:51:31.530Z,93.30
2018-01-15T06:53:59.675Z,93.20
2018-01-15T06:56:28.616Z,92.80
2018-01-15T06:58:56.767Z,91.80
2018-01-15T07:01:24.899Z,92.20
2018-01-15T07:03:53.052Z,91.60
2018-01-15T07:06:21.971Z,91.80
2018-01-15T07:08:50.882Z,91.50
2018-01-15T07:11:19.080Z,91.50
2018-01-15T07:13:47.208Z,91.30
2018-01-15T07:16:15.357Z,91.20
2018-01-15T07:18:43.492Z,91.00
2018-01-15T07:21:12.089Z,91.50
2018-01-15T07:23:41.136Z,91.60
2018-01-15T07:26:09.309Z,91.60
2018-01-15T07:28:38.212Z,92.30
2018-01-15T07:31:07.123Z,91.80
2018-01-15T07:33:35.277Z,91.80
2018-01-15T07:36:03.412Z,91.40
2018-01-15T07:38:31.536Z,92.50
2018-01-15T07:40:59.692Z,92.90
2018-01-15T07:43:28.624Z,93.10
2018-01-15T07:45:56.769Z,92.70
2018-01-15T07:48:24.920Z,93.20
2018-01-15T07:50:53.064Z,92.70
2018-01-15T07:53:21.202Z,92.50
2018-01-15T07:55:50.096Z,92.00
2018-01-15T07:58:19.030Z,91.60
2018-01-15T08:00:47.946Z,91.30
2018-01-15T08:03:16.085Z,91.20
2018-01-15T08:05:44.295Z,91.50
2018-01-15T08:08:12.447Z,91.40
2018-01-15T08:10:40.571Z,91.10
2018-01-15T08:13:08.740Z,91.20
2018-01-15T08:15:36.855Z,91.30
2018-01-15T08:18:05.018Z,91.90
2018-01-15T08:20:33.897Z,92.40
2018-01-15T08:23:03.054Z,92.40
2018-01-15T08:25:31.945Z,92.40
2018-01-15T08:28:00.134Z,92.40
2018-01-15T08:30:29.050Z,93.00
2018-01-15T08:32:57.197Z,93.00
2018-01-15T08:35:25.333Z,92.20
2018-01-15T08:37:54.044Z,91.70
2018-01-15T08:40:22.183Z,91.70
2018-01-15T08:42:51.229Z,90.60
2018-01-15T08:45:19.370Z,90.60
2018-01-15T08:47:48.313Z,90.60
2018-01-15T08:50:16.473Z,90.50
2018-01-15T08:52:44.607Z,90.20
2018-01-15T08:55:12.771Z,90.50
2018-01-15T08:57:40.905Z,90.70
2018-01-15T09:00:09.060Z,90.20
2018-01-15T09:02:37.184Z,89.80
2018-01-15T09:05:06.080Z,90.00
2018-01-15T09:07:34.989Z,89.20
2018-01-15T09:10:03.900Z,89.70
2018-01-15T09:12:32.812Z,90.00
2018-01-15T09:15:00.990Z,90.00
2018-01-15T09:17:29.207Z,90.60
2018-01-15T09:19:57.324Z,90.60
2018-01-15T09:22:25.482Z,90.50
2018-01-15T09:24:53.621Z,91.50
2018-01-15T09:27:21.788Z,91.50
2018-01-15T09:29:49.950Z,91.90
2018-01-15T09:32:18.838Z,91.60
2018-01-15T09:34:46.997Z,91.50
2018-01-15T09:37:15.917Z,91.40
2018-01-15T09:39:44.841Z,91.30
2018-01-15T09:42:12.972Z,91.30
2018-01-15T09:44:41.136Z,91.30
2018-01-15T09:47:09.268Z,91.30
2018-01-15T09:49:38.195Z,91.20
2018-01-15T09:52:06.325Z,91.20
2018-01-15T09:54:34.453Z,91.30
2018-01-15T09:57:02.591Z,91.40
2018-01-15T09:59:30.728Z,91.30
2018-01-15T10:01:58.870Z,90.90
2018-01-15T10:04:27.000Z,90.90
2018-01-15T10:06:55.190Z,90.80
2018-01-15T10:09:23.320Z,91.20
2018-01-15T10:11:51.472Z,91.10
2018-01-15T10:14:19.592Z,90.80
2018-01-15T10:16:49.256Z,90.00
2018-01-15T10:19:18.153Z,90.10
2018-01-15T10:21:47.062Z,90.00
2018-01-15T10:24:15.207Z,90.00
2018-01-15T10:26:43.368Z,90.10
2018-01-15T10:29:11.954Z,90.30
2018-01-15T10:31:40.107Z,90.60
2018-01-15T10:34:09.035Z,91.30
2018-01-15T10:36:37.165Z,91.30
2018-01-15T10:39:05.328Z,92.00
2018-01-15T10:41:34.305Z,91.80
2018-01-15T10:44:03.219Z,92.00
2018-01-15T10:46:31.360Z,91.90
2018-01-15T10:49:00.276Z,91.40
2018-01-15T10:51:29.185Z,91.20
2018-01-15T10:53:58.104Z,91.00
2018-01-15T10:56:26.262Z,90.90
2018-01-15T10:58:55.184Z,90.90
2018-01-15T11:01:26.955Z,91.10
2018-01-15T11:03:55.884Z,90.90
2018-01-15T11:06:24.141Z,90.90
2018-01-15T11:08:53.072Z,90.60
2018-01-15T11:11:21.221Z,90.60
2018-01-15T11:13:50.136Z,90.10
2018-01-15T11:16:19.102Z,90.10
2018-01-15T11:18:47.237Z,90.10
2018-01-15T11:21:16.163Z,90.50
2018-01-15T11:23:44.304Z,90.50
2018-01-15T11:26:12.431Z,90.40
2018-01-15T11:28:40.593Z,90.60
2018-01-15T11:31:09.499Z,89.50
2018-01-15T11:33:37.652Z,89.50
2018-01-15T11:36:05.820Z,89.50
2018-01-15T11:38:34.027Z,89.00
2018-01-15T11:41:02.908Z,88.60
2018-01-15T11:43:31.055Z,89.00
2018-01-15T11:45:59.192Z,88.90
2018-01-15T11:48:27.340Z,90.20
2018-01-15T11:50:55.490Z,90.10
2018-01-15T11:53:23.626Z,90.30
2018-01-15T11:55:52.529Z,90.10
2018-01-15T11:58:20.721Z,90.00
2018-01-15T12:00:48.866Z,89.70
2018-01-15T12:03:17.750Z,89.60
2018-01-15T12:05:45.907Z,89.50
2018-01-15T12:08:14.075Z,89.00
2018-01-15T12:10:42.700Z,88.60
2018-01-15T12:13:10.844Z,89.00
2018-01-15T12:15:38.997Z,89.60
2018-01-15T12:18:07.201Z,90.00
2018-01-15T12:20:35.283Z,90.10
2018-01-15T12:23:03.424Z,89.50
2018-01-15T12:25:31.575Z,90.10
2018-01-15T12:28:00.448Z,90.10
2018-01-15T12:30:28.587Z,89.90
2018-01-15T12:32:58.135Z,89.30
2018-01-15T12:35:26.275Z,89.20
2018-01-15T12:37:54.640Z,89.60
2018-01-15T12:40:22.769Z,88.50
2018-01-15T12:42:52.130Z,89.50
2018-01-15T12:45:20.270Z,89.80
2018-01-15T12:47:48.401Z,89.50
2018-01-15T12:50:17.510Z,89.50
2018-01-15T12:52:45.628Z,89.50
2018-01-15T12:55:13.772Z,90.00
2018-01-15T12:57:41.928Z,89.00
2018-01-15T13:00:11.704Z,88.50
2018-01-15T13:02:41.391Z,88.50
2018-01-15T13:05:09.549Z,88.30
2018-01-15T13:10:39.308Z,88.50
2018-01-15T13:13:07.452Z,88.50
2018-01-15T13:15:36.360Z,89.20
2018-01-15T13:18:05.302Z,89.90
2018-01-15T13:20:35.265Z,89.90
2018-01-15T13:23:04.328Z,89.50
2018-01-15T13:25:34.458Z,90.00
2018-01-15T13:28:02.924Z,90.30
2018-01-15T13:30:31.064Z,90.20
2018-01-15T13:33:00.620Z,90.00
2018-01-15T13:35:28.766Z,90.00
2018-01-15T13:37:56.920Z,89.80
2018-01-15T13:40:25.036Z,89.90
2018-01-15T13:42:53.187Z,89.60
2018-01-15T13:45:21.322Z,89.80
2018-01-15T13:47:49.474Z,89.90
2018-01-15T13:50:17.623Z,90.00
2018-01-15T13:52:46.543Z,90.10
2018-01-15T13:55:15.477Z,90.30
2018-01-15T13:57:43.594Z,90.20
2018-01-15T14:00:11.752Z,90.40
2018-01-15T14:02:39.890Z,90.40
2018-01-15T14:05:08.041Z,90.40
2018-01-15T14:07:36.446Z,90.30
2018-01-15T14:10:05.220Z,90.40
2018-01-15T14:12:33.372Z,90.30
2018-01-15T14:15:02.305Z,90.30
2018-01-15T14:17:30.467Z,90.20
2018-01-15T14:19:59.375Z,90.20
2018-01-15T14:22:27.520Z,90.20
2018-01-15T14:24:55.654Z,90.10
2018-01-15T14:27:23.809Z,90.10
2018-01-15T14:29:52.712Z,89.90
2018-01-15T14:32:21.718Z,90.00
2018-01-15T14:34:49.841Z,90.00
2018-01-15T14:37:18.030Z,90.00
2018-01-15T14:39:46.920Z,89.70
2018-01-15T14:42:15.068Z,89.60
2018-01-15T14:44:43.198Z,89.30
2018-01-15T14:47:11.352Z,89.30
2018-01-15T14:49:40.248Z,89.40
2018-01-15T14:52:08.387Z,89.40
2018-01-15T14:54:36.564Z,89.40
2018-01-15T14:57:04.700Z,89.00
2018-01-15T14:59:32.836Z,89.00
2018-01-15T15:02:01.011Z,88.80
2018-01-15T15:04:29.731Z,88.00
2018-01-15T15:06:57.880Z,89.00
2018-01-15T15:09:26.816Z,89.30
2018-01-15T15:11:54.958Z,89.30
2018-01-15T15:14:23.094Z,89.00
2018-01-15T15:16:51.976Z,89.00
2018-01-15T15:19:20.120Z,89.00
2018-01-15T15:21:48.292Z,89.20
2018-01-15T15:24:16.448Z,89.60
2018-01-15T15:26:44.593Z,90.20
2018-01-15T15:29:13.514Z,90.10
2018-01-15T15:31:41.690Z,90.10
2018-01-15T15:34:10.636Z,90.00
2018-01-15T15:36:38.790Z,90.00
2018-01-15T15:39:06.922Z,90.10
2018-01-15T15:41:35.114Z,90.10
2018-01-15T15:44:03.233Z,90.30
2018-01-15T15:46:32.170Z,90.30
2018-01-15T15:49:00.336Z,90.30
2018-01-15T15:51:29.264Z,90.30
2018-01-15T15:53:57.431Z,90.30
2018-01-15T15:56:26.344Z,90.60
2018-01-15T15:58:54.496Z,90.60
2018-01-15T16:01:22.657Z,90.90
2018-01-15T16:03:51.564Z,91.40
2018-01-15T16:06:19.716Z,91.40
2018-01-15T16:08:48.826Z,91.70
2018-01-15T16:11:16.965Z,92.10
2018-01-15T16:13:45.887Z,92.40
2018-01-15T16:16:14.785Z,92.40
2018-01-15T16:18:43.708Z,92.50
2018-01-15T16:21:12.595Z,93.10
2018-01-15T16:23:41.535Z,93.20
2018-01-15T16:26:09.659Z,93.20
2018-01-15T16:28:38.428Z,93.80
2018-01-15T16:31:06.556Z,93.80
2018-01-15T16:33:34.732Z,94.40
2018-01-15T16:36:02.870Z,94.20
2018-01-15T16:38:31.020Z,94.20
2018-01-15T16:41:00.647Z,93.20
2018-01-15T16:43:29.576Z,93.30
2018-01-15T16:45:57.729Z,93.30
2018-01-15T16:48:25.871Z,93.40
2018-01-15T16:50:54.032Z,93.00
2018-01-15T16:53:22.194Z,92.90
2018-01-15T16:55:50.362Z,92.70
2018-01-15T16:58:18.565Z,93.00
2018-01-15T17:00:46.716Z,92.40
2018-01-15T17:03:14.826Z,92.30
2018-01-15T17:05:42.997Z,92.00
2018-01-15T17:08:11.137Z,91.30
2018-01-15T17:10:40.040Z,90.80
2018-01-15T17:13:08.190Z,90.50
2018-01-15T17:15:36.313Z,90.00
2018-01-15T17:18:04.508Z,88.80
2018-01-15T17:20:32.654Z,88.50
2018-01-15T17:23:00.819Z,87.40
2018-01-15T17:25:28.958Z,86.20
2018-01-15T17:27:57.126Z,86.10
2018-01-15T17:30:26.028Z,84.40
2018-01-15T17:32:54.949Z,84.10
2018-01-15T17:35:23.890Z,83.60
2018-01-15T17:37:52.831Z,83.70
2018-01-15T17:40:20.979Z,83.60
2018-01-15T17:42:49.135Z,83.90
2018-01-15T17:45:18.107Z,83.10
2018-01-15T17:47:47.893Z,83.10
2018-01-15T17:50:16.045Z,83.10
2018-01-15T17:52:44.199Z,84.00
2018-01-15T17:55:12.329Z,84.50
2018-01-15T17:57:40.482Z,85.20
2018-01-15T18:00:11.670Z,85.80
2018-01-15T18:02:39.792Z,86.40
2018-01-15T18:05:07.945Z,88.20
2018-01-15T18:07:36.069Z,89.40
2018-01-15T18:10:04.222Z,90.40
2018-01-15T18:12:32.399Z,91.10
2018-01-15T18:15:01.330Z,92.50
2018-01-15T18:17:29.459Z,92.50
2018-01-15T18:19:58.385Z,93.10
2018-01-15T18:22:28.089Z,93.50
2018-01-15T18:24:57.021Z,93.50
2018-01-15T18:27:25.175Z,93.50
2018-01-15T18:29:53.497Z,93.90
2018-01-15T18:32:21.650Z,94.20
2018-01-15T18:34:50.760Z,94.70
2018-01-15T18:37:18.908Z,94.70
2018-01-15T18:39:47.055Z,94.70
2018-01-15T18:42:15.191Z,95.10
2018-01-15T18:44:43.363Z,95.00
2018-01-15T18:47:11.520Z,95.20
2018-01-15T18:49:39.676Z,95.60
2018-01-15T18:52:08.594Z,96.00
2018-01-15T18:54:36.791Z,96.00
2018-01-15T18:57:06.329Z,96.50
2018-01-15T18:59:34.466Z,96.50
2018-01-15T19:02:02.615Z,96.70
2018-01-15T19:04:30.765Z,96.60
2018-01-15T19:06:58.924Z,96.70
2018-01-15T19:09:27.063Z,96.80
2018-01-15T19:11:55.229Z,97.30
2018-01-15T19:14:23.376Z,97.30
2018-01-15T19:16:51.559Z,97.40
2018-01-15T19:19:20.301Z,97.30
2018-01-15T19:21:48.471Z,97.30
2018-01-15T19:24:16.608Z,97.70
2018-01-15T19:26:44.763Z,97.70
2018-01-15T19:29:12.927Z,97.70
2018-01-15T19:31:41.051Z,98.00
2018-01-15T19:34:09.221Z,98.10
2018-01-15T19:39:35.487Z,98.10
2018-01-15T19:42:10.000Z,98.10
2018-01-15T19:44:43.714Z,98.10
2018-01-15T19:47:18.405Z,98.30
2018-01-15T19:49:52.204Z,98.30
2018-01-15T19:52:25.995Z,98.60
2018-01-15T19:55:01.632Z,98.30
2018-01-15T19:57:35.382Z,98.30
2018-01-15T20:00:09.946Z,98.50
2018-01-15T20:02:43.717Z,98.50
2018-01-15T20:05:17.527Z,98.20
2018-01-15T20:07:51.388Z,98.20
2018-01-15T20:10:25.923Z,98.00
2018-01-15T20:12:54.862Z,97.90
2018-01-15T20:15:23.796Z,97.60
2018-01-15T20:17:51.932Z,97.60
2018-01-15T20:20:20.120Z,97.90
2018-01-15T20:22:49.222Z,97.60
2018-01-15T20:25:17.369Z,97.30
2018-01-15T20:27:45.525Z,97.60
2018-01-15T20:30:13.721Z,96.90
2018-01-15T20:32:41.866Z,96.90
2018-01-15T20:37:45.999Z,97.00
2018-01-15T20:40:14.156Z,97.00
2018-01-15T20:42:42.302Z,96.70
2018-01-15T20:45:10.562Z,97.20
2018-01-15T20:47:38.693Z,97.10
2018-01-15T20:50:06.846Z,97.20
2018-01-15T20:52:35.436Z,97.30
2018-01-15T20:55:03.575Z,97.40
2018-01-15T20:57:31.758Z,97.40
2018-01-15T20:59:59.926Z,97.30
2018-01-15T21:02:28.104Z,97.40
2018-01-15T21:04:56.253Z,97.20
2018-01-15T21:07:24.435Z,97.30
2018-01-15T21:09:52.567Z,97.50
2018-01-15T21:12:20.740Z,97.50
2018-01-15T21:14:48.882Z,97.60
2018-01-15T21:17:18.562Z,97.80
2018-01-15T21:19:46.710Z,97.80
2018-01-15T21:22:15.625Z,97.70
2018-01-15T21:24:44.532Z,97.60
2018-01-15T21:27:13.433Z,97.70
2018-01-15T21:29:42.340Z,98.00
2018-01-15T21:32:11.248Z,97.80
2018-01-15T21:34:39.396Z,97.80
2018-01-15T21:37:07.548Z,97.80
2018-01-15T21:39:35.693Z,97.80
2018-01-15T21:42:04.588Z,97.70
2018-01-15T21:44:32.737Z,97.70
2018-01-15T21:47:00.904Z,98.00
2018-01-15T21:49:29.045Z,97.70
2018-01-15T21:51:57.178Z,97.80
2018-01-15T21:54:25.409Z,97.70
2018-01-15T21:56:53.511Z,97.60
2018-01-15T21:59:23.082Z,97.90
2018-01-15T22:01:51.226Z,97.60
2018-01-15T22:04:20.192Z,97.60
2018-01-15T22:06:48.360Z,97.60
2018-01-15T22:09:16.527Z,97.40
2018-01-15T22:11:44.710Z,97.60
2018-01-15T22:14:12.888Z,97.60
2018-01-15T22:16:40.991Z,97.30
2018-01-15T22:19:09.129Z,97.60
2018-01-15T22:21:38.062Z,98.10
2018-01-15T22:24:06.194Z,97.90
2018-01-15T22:26:34.362Z,97.60
2018-01-15T22:29:02.492Z,97.70
2018-01-15T22:31:31.382Z,97.70
2018-01-15T22:33:59.534Z,97.90
2018-01-15T22:36:27.652Z,97.40
2018-01-15T22:38:55.788Z,97.20
2018-01-15T22:41:23.915Z,97.40
2018-01-15T22:43:52.094Z,97.50
2018-01-15T22:46:20.228Z,97.40
2018-01-15T22:48:49.166Z,97.00
2018-01-15T22:51:17.300Z,97.00
2018-01-15T22:53:46.192Z,97.40
2018-01-15T22:56:14.332Z,97.40
2018-01-15T22:58:43.698Z,97.60
2018-01-15T23:01:11.827Z,97.60
2018-01-15T23:03:39.959Z,97.60
2018-01-15T23:06:08.100Z,97.50
2018-01-15T23:08:36.231Z,97.40
2018-01-15T23:11:04.382Z,97.40
2018-01-15T23:13:32.520Z,97.50
2018-01-15T23:16:01.418Z,97.40
2018-01-15T23:18:29.561Z,97.40
2018-01-15T23:20:57.681Z,97.70
2018-01-15T23:23:25.840Z,97.60
2018-01-15T23:25:54.004Z,97.60
2018-01-15T23:28:22.125Z,97.50
2018-01-15T23:30:50.291Z,97.30
2018-01-15T23:33:18.415Z,97.80
2018-01-15T23:35:47.336Z,97.50
2018-01-15T23:38:16.231Z,97.40
2018-01-15T23:40:45.155Z,97.00
2018-01-15T23:43:13.288Z,97.00
2018-01-15T23:45:41.434Z,97.10
2018-01-15T23:48:09.555Z,97.30
2018-01-15T23:50:37.729Z,97.00
2018-01-15T23:53:05.873Z,97.30
2018-01-15T23:55:34.792Z,96.80
2018-01-15T23:58:02.908Z,96.80
